Chaleur - Miscou: Past 24 Hour Conditions

 

Grand Étang

05:00 AM ADT 29 July 2014
This table is a summary of hourly weather conditions for the past 24 hours.
Date / Time
(ADT)
Wind(knots) Conditions Visibility(km) Pressure(kPa) Air tempC) Relative humidity(%) Dew pointC) Humidex
29 July 2014
5:00 SSE 12 gust 19 N/A N/A 100.7 23 84 20 30
4:00 SE 18 gust 25 N/A N/A 100.7 23 88 21 31
3:00 SE 17 gust 23 N/A N/A 100.7 23 85 20 31
2:00 SE 15 gust 24 N/A N/A 100.8 23 83 20 31
1:00 SE 16 gust 25 N/A N/A 100.8 24 80 20 31
0:00 SE 13 gust 19 N/A N/A 100.9 24 78 20 31
28 July 2014
23:00 SE 15 gust 23 N/A N/A 100.9 24 78 20 31
22:00 SE 19 gust 30 N/A N/A 100.9 24 78 19 31
21:00 SE 17 gust 23 N/A N/A 101.0 24 78 19 31
20:00 SE 17 gust 22 N/A N/A 101.0 24 77 20 31
19:00 SE 13 gust 26 N/A N/A 101.1 24 75 20 32
18:00 SSE 17 gust 26 N/A N/A 101.1 25 70 20 33
17:00 SE 23 gust 29 N/A N/A 101.1 26 70 20 33
16:00 SE 22 gust 29 N/A N/A 101.1 26 70 20 33
15:00 SSE 14 gust 25 N/A N/A 101.1 27 69 21 35
14:00 SSE 13 gust 22 N/A N/A 101.2 26 74 21 34
13:00 SSE 14 gust 24 N/A N/A 101.2 27 67 20 34
12:00 SSE 18 gust 27 N/A N/A 101.3 25 73 20 32
11:00 SE 18 gust 26 N/A N/A 101.2 26 68 20 33
10:00 SSE 17 gust 29 N/A N/A 101.2 25 70 19 31
9:00 SE 20 gust 27 N/A N/A 101.2 23 75 19 30
8:00 SE 16 gust 22 N/A N/A 101.2 23 77 18 29
7:00 SE 14 gust 26 N/A N/A 101.2 21 79 18 27
6:00 SE 18 gust 26 N/A N/A 101.2 21 77 17 26
5:00 SE 17 gust 26 N/A N/A 101.2 21 77 17 26
 
Map of Atlantic - Newfoundland marine weather areas Southwestern Grand Banks - 44138 Banquereau - 44139 Tail of the Bank - 44140 Nickerson Bank - 44251 Northeast Burgeo Bank - 44255 Blanc-Sablon Airport Cap Whittle Chevery Natashquan Airport Heath Point Miscou Island Grand Étang Ingonish Beach North Mountain St.Paul Island J.A. Douglas McCurdy Sydney Airport Charlottetown Airport East Point North Cape Argentia Bonavista Burgeo Cape Race Corner Brook Daniel's Harbour Englee Ferolle Point La Scie Port aux Basques Rocky Harbour Sagona Island St. Anthony Airport St. John's Int'l Airport St. Lawrence Stephenville Airport Twillingate Winterland Wreckhouse Cartwright Airport Mary's Harbour Grates Cove Pool's Island Marticot Island Long Pond Îles de la Madeleine Airport
Legend: buoyBuoy land stationLand Station